Time;durP1;ratioP1;P1;durP2;ratioP2;P2;SDS_P1;SDS_P2;PMS_P1;PMS_P2;Temp;Humidity;BMP_temperature;BMP_pressure;BME280_temperature;BME280_humidity;BME280_pressure;Samples;Min_cycle;Max_cycle;Signal;HPM_P1;HPM_P2
2021/05/28 00:01:57;;;;;;;10.77;5.30;;;;;;;11.21;100.00;101296.16;4917800;29;20235;-75
2021/05/28 00:04:22;;;;;;;11.57;4.97;;;;;;;11.41;100.00;101300.91;4902843;29;20290;-76
2021/05/28 00:06:48;;;;;;;11.37;5.20;;;;;;;11.16;100.00;101298.00;4934209;29;20308;-74
2021/05/28 00:09:13;;;;;;;10.70;4.93;;;;;;;11.19;100.00;101298.31;4918851;29;20630;-75
2021/05/28 00:11:39;;;;;;;13.23;5.87;;;;;;;11.32;100.00;101299.78;4933727;29;20231;-76
2021/05/28 00:14:05;;;;;;;11.60;4.90;;;;;;;11.47;100.00;101300.72;4918212;29;20247;-75
2021/05/28 00:16:31;;;;;;;13.53;5.20;;;;;;;11.40;100.00;101305.53;4930174;29;20235;-74
2021/05/28 00:18:56;;;;;;;11.83;5.17;;;;;;;11.37;100.00;101299.78;4916332;29;20189;-75
2021/05/28 00:21:22;;;;;;;13.27;5.57;;;;;;;11.29;100.00;101311.97;4898896;29;20224;-75
2021/05/28 00:23:47;;;;;;;12.50;5.73;;;;;;;11.22;100.00;101313.28;4930272;29;20253;-75
2021/05/28 00:26:13;;;;;;;10.13;4.80;;;;;;;11.00;100.00;101319.88;4930262;29;20236;-76
2021/05/28 00:28:39;;;;;;;9.03;5.00;;;;;;;10.97;100.00;101315.81;4926534;29;20203;-74
2021/05/28 00:31:04;;;;;;;13.13;5.30;;;;;;;10.89;100.00;101321.69;4933320;29;20278;-76
2021/05/28 00:33:30;;;;;;;11.63;5.27;;;;;;;10.78;100.00;101330.00;4932811;29;20684;-76
2021/05/28 00:35:56;;;;;;;8.10;4.70;;;;;;;10.85;100.00;101327.91;4915492;29;20286;-76
2021/05/28 00:38:21;;;;;;;10.73;5.00;;;;;;;10.93;100.00;101328.28;4946361;29;20661;-75
2021/05/28 00:40:47;;;;;;;9.87;5.40;;;;;;;10.81;100.00;101332.22;4914342;29;20239;-75
2021/05/28 00:43:14;;;;;;;11.77;4.93;;;;;;;10.62;100.00;101341.81;4925467;29;20187;-75
2021/05/28 00:45:40;;;;;;;15.57;5.27;;;;;;;10.65;100.00;101338.56;4917178;29;20251;-75
2021/05/28 00:48:08;;;;;;;7.17;4.40;;;;;;;10.57;100.00;101339.03;4902322;29;20673;-76
2021/05/28 00:50:34;;;;;;;11.47;4.97;;;;;;;10.50;100.00;101341.13;4901971;29;20230;-76
2021/05/28 00:53:02;;;;;;;14.00;5.03;;;;;;;10.60;100.00;101346.66;4917043;29;20674;-76
2021/05/28 00:55:32;;;;;;;9.67;5.40;;;;;;;10.39;100.00;101352.94;4901319;29;20232;-75
2021/05/28 00:58:02;;;;;;;8.80;4.97;;;;;;;10.54;100.00;101347.69;4900316;29;20199;-75
2021/05/28 01:00:28;;;;;;;9.20;5.00;;;;;;;10.51;100.00;101348.22;4923011;28;20195;-74
2021/05/28 01:02:56;;;;;;;11.37;5.27;;;;;;;10.57;100.00;101344.47;4933006;29;20263;-75
2021/05/28 01:05:27;;;;;;;13.80;5.13;;;;;;;10.51;100.00;101350.09;4932782;29;20246;-75
2021/05/28 01:07:52;;;;;;;9.77;5.47;;;;;;;10.60;100.00;101352.09;4917643;29;20188;-74
2021/05/28 01:10:22;;;;;;;14.07;5.10;;;;;;;10.42;100.00;101360.59;4928351;29;20199;-74
2021/05/28 01:12:48;;;;;;;14.77;5.23;;;;;;;10.45;100.00;101351.94;4898614;29;20188;-75
2021/05/28 01:15:14;;;;;;;10.37;4.90;;;;;;;10.45;100.00;101357.34;4944429;29;20258;-75
2021/05/28 01:17:42;;;;;;;12.30;4.83;;;;;;;10.43;100.00;101356.78;4917274;29;20191;-74
2021/05/28 01:20:08;;;;;;;10.33;4.93;;;;;;;10.46;100.00;101356.28;4931677;29;20666;-75
2021/05/28 01:22:36;;;;;;;12.47;5.00;;;;;;;10.29;100.00;101371.00;4932210;29;20199;-75
2021/05/28 01:25:05;;;;;;;12.57;5.10;;;;;;;10.27;100.00;101372.34;4901377;29;20242;-74
2021/05/28 01:27:30;;;;;;;12.40;5.07;;;;;;;10.27;100.00;101367.72;4901390;29;20714;-76
2021/05/28 01:29:56;;;;;;;15.47;5.27;;;;;;;10.24;100.00;101370.16;4901042;29;20191;-75
2021/05/28 01:32:27;;;;;;;11.63;5.03;;;;;;;10.26;100.00;101381.56;4916236;29;20251;-75
2021/05/28 01:34:54;;;;;;;11.37;4.67;;;;;;;10.35;100.00;101396.31;4934009;29;20698;-74
2021/05/28 01:37:22;;;;;;;11.77;4.80;;;;;;;10.14;100.00;101391.72;4932225;29;20262;-75
2021/05/28 01:39:52;;;;;;;12.53;5.00;;;;;;;10.23;100.00;101392.94;4916816;29;20192;-75
2021/05/28 01:42:18;;;;;;;10.67;4.77;;;;;;;10.13;100.00;101401.75;4932524;29;20329;-76
2021/05/28 01:44:47;;;;;;;10.70;4.70;;;;;;;10.07;100.00;101401.94;4948536;28;20203;-75
2021/05/28 01:47:15;;;;;;;13.77;5.57;;;;;;;10.22;100.00;101392.13;4917435;29;20243;-74
2021/05/28 01:49:41;;;;;;;16.30;5.60;;;;;;;10.11;100.00;101400.38;4917781;29;20192;-74
2021/05/28 01:52:07;;;;;;;13.17;5.37;;;;;;;10.13;100.00;101392.81;4931792;29;20231;-76
2021/05/28 01:54:39;;;;;;;10.00;5.73;;;;;;;9.93;100.00;101397.13;4917291;29;20236;-76
2021/05/28 01:57:06;;;;;;;10.27;5.20;;;;;;;9.86;100.00;101405.41;4932146;29;20721;-77
2021/05/28 01:59:31;;;;;;;12.07;5.83;;;;;;;9.74;100.00;101399.28;4933111;29;20290;-75
2021/05/28 02:01:59;;;;;;;8.53;5.00;;;;;;;9.86;100.00;101399.97;4931786;28;20235;-75
2021/05/28 02:04:30;;;;;;;14.13;5.60;;;;;;;9.64;100.00;101407.25;4901923;29;20278;-75
2021/05/28 02:06:56;;;;;;;16.43;6.37;;;;;;;9.74;100.00;101404.69;4917074;29;20584;-75
2021/05/28 02:09:21;;;;;;;11.67;5.67;;;;;;;9.71;100.00;101401.66;4901450;29;20203;-75
2021/05/28 02:11:52;;;;;;;12.37;5.80;;;;;;;9.81;100.00;101407.22;4916070;29;20216;-74
2021/05/28 02:14:18;;;;;;;13.37;5.53;;;;;;;9.84;100.00;101409.44;4918180;29;20203;-74
2021/05/28 02:16:43;;;;;;;14.17;6.43;;;;;;;9.92;100.00;101409.88;4932073;29;20239;-75
2021/05/28 02:19:09;;;;;;;17.57;6.10;;;;;;;9.67;100.00;101409.47;4917025;29;20183;-74
2021/05/28 02:21:38;;;;;;;12.33;6.23;;;;;;;9.77;100.00;101415.03;4916695;29;20235;-75
2021/05/28 02:24:11;;;;;;;16.00;6.13;;;;;;;9.76;100.00;101421.53;4933288;29;20282;-75
2021/05/28 02:26:37;;;;;;;17.20;7.20;;;;;;;9.78;100.00;101427.53;4933021;29;20242;-75
2021/05/28 02:29:03;;;;;;;13.83;6.43;;;;;;;9.69;100.00;101426.31;4948564;29;20191;-75
2021/05/28 02:31:31;;;;;;;13.77;6.27;;;;;;;9.77;100.00;101431.31;4900713;29;20223;-75
2021/05/28 02:33:59;;;;;;;14.83;6.30;;;;;;;9.75;100.00;101425.31;4915867;29;20278;-74
2021/05/28 02:36:27;;;;;;;15.67;5.73;;;;;;;9.76;100.00;101435.13;4947660;28;20242;-75
2021/05/28 02:38:52;;;;;;;14.43;6.43;;;;;;;9.61;100.00;101439.44;4916952;29;20199;-74
2021/05/28 02:41:18;;;;;;;15.83;7.27;;;;;;;9.68;100.00;101449.06;4916304;29;20224;-74
2021/05/28 02:43:48;;;;;;;13.50;6.50;;;;;;;9.51;100.00;101443.91;4932170;29;20187;-74
2021/05/28 02:46:14;;;;;;;18.30;6.77;;;;;;;9.55;100.00;101445.06;4931234;29;20234;-74
2021/05/28 02:48:42;;;;;;;11.10;6.70;;;;;;;9.55;100.00;101447.78;4933266;29;20187;-73
2021/05/28 02:51:07;;;;;;;12.13;6.17;;;;;;;9.61;100.00;101453.88;4900012;29;20226;-74
2021/05/28 02:53:35;;;;;;;19.37;15.03;;;;;;;9.49;100.00;101446.06;4928394;29;20192;-75
2021/05/28 02:56:05;;;;;;;12.87;7.03;;;;;;;9.36;100.00;101449.09;4913010;29;20322;-75
2021/05/28 02:58:31;;;;;;;14.67;6.67;;;;;;;9.34;100.00;101451.19;4926709;29;20192;-75
2021/05/28 03:01:02;;;;;;;11.63;6.40;;;;;;;9.38;100.00;101453.19;4914108;29;20306;-75
2021/05/28 03:03:30;;;;;;;14.13;6.80;;;;;;;9.30;100.00;101455.47;4928170;29;20199;-76
2021/05/28 03:05:58;;;;;;;18.37;6.97;;;;;;;9.31;100.00;101457.94;4928286;29;20737;-74
2021/05/28 03:08:26;;;;;;;18.27;6.10;;;;;;;9.12;100.00;101458.41;4916405;29;20184;-74
2021/05/28 03:10:51;;;;;;;9.23;5.80;;;;;;;9.18;100.00;101468.25;4916467;29;20287;-74
2021/05/28 03:13:17;;;;;;;12.23;6.53;;;;;;;9.13;100.00;101470.88;4927566;29;20188;-74
2021/05/28 03:15:43;;;;;;;17.17;6.83;;;;;;;9.30;100.00;101477.16;4929010;29;20295;-73
2021/05/28 03:18:19;;;;;;;12.53;5.70;;;;;;;9.31;100.00;101476.09;4933721;29;20186;-73
2021/05/28 03:20:50;;;;;;;16.17;6.67;;;;;;;9.28;100.00;101473.84;4938118;29;20274;-78
2021/05/28 03:23:15;;;;;;;15.60;6.87;;;;;;;9.23;100.00;101482.72;4922648;29;20200;-79
2021/05/28 03:25:44;;;;;;;17.37;6.77;;;;;;;9.29;100.00;101480.94;4953320;29;20231;-79
2021/05/28 03:28:10;;;;;;;11.40;6.67;;;;;;;9.25;100.00;101480.59;4955733;29;20255;-79
2021/05/28 03:30:40;;;;;;;13.30;6.93;;;;;;;9.29;100.00;101486.34;4953161;29;20235;-79
2021/05/28 03:33:06;;;;;;;12.07;6.97;;;;;;;9.32;100.00;101493.97;4948030;29;20266;-79
2021/05/28 03:35:34;;;;;;;14.43;7.37;;;;;;;9.25;100.00;101490.63;4938438;29;20236;-80
2021/05/28 03:38:02;;;;;;;18.87;7.50;;;;;;;9.26;100.00;101489.53;4940044;29;20216;-79
2021/05/28 03:40:30;;;;;;;16.53;7.77;;;;;;;9.21;100.00;101492.16;4922874;29;20937;-79
2021/05/28 03:42:56;;;;;;;16.73;8.10;;;;;;;9.37;100.00;101488.66;4953807;29;20202;-80
2021/05/28 03:45:24;;;;;;;13.57;8.17;;;;;;;9.53;100.00;101496.00;4922727;29;20227;-79
2021/05/28 03:47:52;;;;;;;13.50;8.30;;;;;;;9.45;100.00;101497.25;4938414;29;20207;-79
2021/05/28 03:50:18;;;;;;;18.53;9.67;;;;;;;9.53;100.00;101493.28;4937167;29;20183;-79
2021/05/28 03:52:45;;;;;;;17.37;9.83;;;;;;;9.50;100.00;101504.63;4937463;29;20240;-79
2021/05/28 03:55:11;;;;;;;17.47;9.20;;;;;;;9.50;100.00;101504.63;4936684;29;20650;-79
2021/05/28 03:57:37;;;;;;;17.43;9.93;;;;;;;9.68;100.00;101492.47;4952713;29;20180;-78
2021/05/28 04:00:03;;;;;;;18.27;9.80;;;;;;;9.64;100.00;101493.22;4936679;29;20271;-79
2021/05/28 04:02:40;;;;;;;14.67;9.40;;;;;;;9.85;100.00;101495.19;4936479;29;20337;-79
2021/05/28 04:05:06;;;;;;;19.60;10.40;;;;;;;9.88;100.00;101490.09;4936170;29;20203;-78
2021/05/28 04:07:35;;;;;;;17.97;9.73;;;;;;;10.06;100.00;101487.97;4938896;29;20187;-79
2021/05/28 04:10:01;;;;;;;17.30;11.13;;;;;;;9.92;100.00;101488.56;4953111;29;20183;-79
2021/05/28 04:12:26;;;;;;;15.67;9.43;;;;;;;9.97;100.00;101479.69;4936118;29;20239;-79
2021/05/28 04:14:52;;;;;;;16.60;10.23;;;;;;;9.95;100.00;101493.50;4936913;29;20287;-80
2021/05/28 04:17:19;;;;;;;18.47;10.20;;;;;;;9.83;100.00;101500.84;4904647;29;20621;-79
2021/05/28 04:19:48;;;;;;;14.77;10.10;;;;;;;9.89;100.00;101493.63;4920588;29;20175;-79
2021/05/28 04:22:15;;;;;;;14.77;9.47;;;;;;;10.13;100.00;101501.38;4935558;29;20983;-78
2021/05/28 04:24:41;;;;;;;14.47;10.17;;;;;;;9.99;100.00;101505.50;4935969;29;20223;-78
2021/05/28 04:27:09;;;;;;;15.23;10.30;;;;;;;9.95;100.00;101498.94;4934581;29;20223;-78
2021/05/28 04:29:35;;;;;;;17.20;10.43;;;;;;;9.92;100.00;101499.41;4919757;29;20202;-79
2021/05/28 04:32:01;;;;;;;12.33;9.73;;;;;;;10.05;100.00;101501.78;4918429;29;20223;-79
2021/05/28 04:34:26;;;;;;;14.50;9.93;;;;;;;10.11;100.00;101500.81;4952803;29;20198;-78
2021/05/28 04:36:57;;;;;;;14.50;10.10;;;;;;;10.21;100.00;101498.25;4936699;29;20291;-79
2021/05/28 04:39:26;;;;;;;16.07;10.90;;;;;;;10.34;100.00;101492.47;4921171;29;20539;-79
2021/05/28 04:41:55;;;;;;;16.87;9.87;;;;;;;10.17;100.00;101497.91;4903807;29;20751;-77
2021/05/28 04:44:20;;;;;;;12.93;9.83;;;;;;;10.25;100.00;101504.81;4934739;29;20308;-78
2021/05/28 04:46:48;;;;;;;15.43;9.87;;;;;;;10.32;100.00;101503.56;4934607;29;20227;-78
2021/05/28 04:49:14;;;;;;;14.80;10.33;;;;;;;10.52;100.00;101501.13;4936252;29;20184;-78
2021/05/28 04:51:42;;;;;;;15.33;10.03;;;;;;;10.55;100.00;101506.91;4919254;29;20227;-79
2021/05/28 04:54:08;;;;;;;13.90;9.33;;;;;;;10.59;100.00;101508.03;4936555;29;20757;-78
2021/05/28 04:56:33;;;;;;;12.97;9.53;;;;;;;10.67;100.00;101514.91;4951875;28;20275;-78
2021/05/28 04:58:59;;;;;;;15.27;9.50;;;;;;;10.79;100.00;101508.28;4936656;29;20243;-78
2021/05/28 05:01:24;;;;;;;14.00;10.27;;;;;;;10.74;100.00;101521.81;4935930;28;20227;-78
2021/05/28 05:03:50;;;;;;;14.53;9.87;;;;;;;10.88;100.00;101517.66;4935276;29;20175;-78
2021/05/28 05:06:16;;;;;;;15.63;9.23;;;;;;;11.07;100.00;101516.25;4935214;29;20216;-76
2021/05/28 05:08:44;;;;;;;14.17;9.33;;;;;;;11.09;100.00;101516.81;4924967;28;20186;-78
2021/05/28 05:11:10;;;;;;;14.30;9.73;;;;;;;10.85;100.00;101513.53;4936872;29;20216;-79
2021/05/28 05:13:40;;;;;;;21.20;15.10;;;;;;;11.01;100.00;101511.84;4937654;29;20198;-80
2021/05/28 05:16:08;;;;;;;13.27;10.20;;;;;;;10.96;100.00;101512.56;4934232;28;20809;-78
2021/05/28 05:18:36;;;;;;;11.63;9.43;;;;;;;11.26;100.00;101511.03;4951292;29;20573;-77
2021/05/28 05:21:02;;;;;;;13.77;9.30;;;;;;;10.95;100.00;101524.53;4902437;29;20232;-77
2021/05/28 05:23:30;;;;;;;13.73;9.73;;;;;;;11.23;100.00;101527.84;4922441;29;20198;-76
2021/05/28 05:25:58;;;;;;;16.00;9.93;;;;;;;11.23;100.00;101521.59;4933969;29;20606;-76
2021/05/28 05:28:24;;;;;;;10.93;9.20;;;;;;;11.30;100.00;101525.75;4917363;29;20196;-77
2021/05/28 05:30:50;;;;;;;14.90;10.00;;;;;;;11.28;100.00;101533.38;4915550;29;20254;-81
2021/05/28 05:33:15;;;;;;;16.00;9.90;;;;;;;11.16;100.00;101537.28;4949148;29;20223;-78
2021/05/28 05:35:41;;;;;;;14.13;10.17;;;;;;;10.96;100.00;101536.22;4915896;29;20220;-77
2021/05/28 05:38:12;;;;;;;14.33;10.83;;;;;;;11.21;100.00;101534.63;4942403;29;20202;-79
2021/05/28 05:40:39;;;;;;;17.93;14.57;;;;;;;11.20;100.00;101536.50;4904760;29;20262;-79
2021/05/28 05:43:09;;;;;;;13.37;10.50;;;;;;;11.21;100.00;101551.78;4945304;29;20195;-76
2021/05/28 05:45:37;;;;;;;13.27;10.87;;;;;;;11.11;100.00;101550.00;4918302;29;20223;-78
2021/05/28 05:48:03;;;;;;;12.43;10.43;;;;;;;11.30;100.00;101561.13;4917863;29;20581;-75
2021/05/28 05:50:31;;;;;;;13.50;10.13;;;;;;;11.57;100.00;101562.81;4942648;28;20234;-75
2021/05/28 05:52:57;;;;;;;12.43;9.90;;;;;;;11.67;100.00;101567.53;4919297;29;20184;-74
2021/05/28 05:55:23;;;;;;;13.23;10.73;;;;;;;11.65;100.00;101564.25;4947573;28;20823;-75
2021/05/28 05:57:51;;;;;;;13.57;10.30;;;;;;;11.34;100.00;101567.69;4932500;29;20263;-75
2021/05/28 06:00:17;;;;;;;10.63;9.60;;;;;;;11.14;100.00;101566.63;4916401;28;20184;-75
2021/05/28 06:02:43;;;;;;;12.37;9.67;;;;;;;11.06;100.00;101574.41;4948875;28;20191;-75
2021/05/28 06:05:09;;;;;;;15.47;10.63;;;;;;;11.14;100.00;101567.44;4932601;29;20194;-75
2021/05/28 06:07:34;;;;;;;11.20;9.60;;;;;;;11.48;100.00;101573.59;4915778;29;20245;-75
2021/05/28 06:10:00;;;;;;;10.87;9.77;;;;;;;10.95;100.00;101578.06;4915757;29;20188;-75
2021/05/28 06:12:26;;;;;;;12.73;9.73;;;;;;;10.99;100.00;101582.75;4916468;29;20239;-74
2021/05/28 06:14:51;;;;;;;13.87;10.50;;;;;;;10.76;100.00;101590.31;4903306;29;20497;-75
2021/05/28 06:17:20;;;;;;;16.50;10.53;;;;;;;11.08;100.00;101583.13;4901663;29;20668;-74
2021/05/28 06:19:49;;;;;;;13.50;9.77;;;;;;;11.07;100.00;101584.22;4917173;29;20737;-78
2021/05/28 06:22:20;;;;;;;11.80;9.57;;;;;;;11.11;100.00;101577.19;4932252;29;20283;-73
2021/05/28 06:24:46;;;;;;;12.37;9.90;;;;;;;11.07;100.00;101587.75;4934343;29;20215;-74
2021/05/28 06:27:11;;;;;;;11.70;10.10;;;;;;;11.07;100.00;101595.09;4932662;29;20238;-75
2021/05/28 06:29:41;;;;;;;14.27;10.63;;;;;;;11.24;100.00;101610.25;4933160;29;20262;-74
2021/05/28 06:32:12;;;;;;;12.40;10.77;;;;;;;11.36;100.00;101609.06;4932265;29;20238;-74
2021/05/28 06:34:37;;;;;;;13.70;10.90;;;;;;;11.33;100.00;101616.91;4916710;29;20216;-75
2021/05/28 06:37:05;;;;;;;13.00;10.43;;;;;;;11.35;100.00;101618.28;4916459;29;20246;-75
2021/05/28 06:39:33;;;;;;;12.87;10.67;;;;;;;11.40;100.00;101607.47;4902514;29;20198;-74
2021/05/28 06:42:03;;;;;;;12.37;9.73;;;;;;;11.58;100.00;101608.00;4916831;29;20219;-75
2021/05/28 06:44:33;;;;;;;11.63;10.23;;;;;;;11.47;100.00;101615.47;4918182;29;20212;-74
2021/05/28 06:47:00;;;;;;;11.80;9.80;;;;;;;11.30;100.00;101617.41;4920639;29;20330;-74
2021/05/28 06:49:28;;;;;;;12.40;9.83;;;;;;;11.40;100.00;101615.63;4918966;29;20277;-77
2021/05/28 06:51:58;;;;;;;10.87;9.77;;;;;;;11.45;100.00;101618.47;4933069;28;20286;-76
2021/05/28 06:54:29;;;;;;;10.13;9.00;;;;;;;11.70;100.00;101616.84;4918697;29;20191;-75
2021/05/28 06:57:00;;;;;;;11.83;9.77;;;;;;;11.69;100.00;101625.25;4917285;29;20251;-74
2021/05/28 06:59:25;;;;;;;9.93;8.93;;;;;;;11.77;100.00;101627.50;4950007;29;20576;-75
2021/05/28 07:01:54;;;;;;;10.50;9.10;;;;;;;11.89;100.00;101631.75;4948114;28;20231;-74
2021/05/28 07:04:25;;;;;;;11.07;9.23;;;;;;;11.84;100.00;101633.59;4950214;29;20206;-74
2021/05/28 07:06:53;;;;;;;10.50;9.40;;;;;;;11.96;100.00;101644.06;4944579;29;20224;-73
2021/05/28 07:09:18;;;;;;;10.87;9.40;;;;;;;11.98;100.00;101641.91;4926129;29;20654;-79
2021/05/28 07:11:46;;;;;;;10.80;9.53;;;;;;;11.96;100.00;101644.06;4915587;29;20231;-76
2021/05/28 07:14:12;;;;;;;10.30;9.33;;;;;;;11.93;100.00;101638.31;4933225;29;20196;-77
2021/05/28 07:16:40;;;;;;;9.73;8.83;;;;;;;12.22;100.00;101632.34;4938724;28;20231;-77
2021/05/28 07:19:08;;;;;;;11.00;9.13;;;;;;;11.98;100.00;101650.06;4918085;29;20260;-77
2021/05/28 07:21:34;;;;;;;10.67;9.57;;;;;;;12.05;100.00;101645.25;4916143;29;20250;-76
2021/05/28 07:24:00;;;;;;;11.63;9.37;;;;;;;12.30;100.00;101648.19;4932748;29;20636;-76
2021/05/28 07:26:28;;;;;;;11.07;9.23;;;;;;;12.68;100.00;101631.63;4901728;29;20258;-75
2021/05/28 07:28:56;;;;;;;9.63;8.73;;;;;;;12.16;100.00;101633.38;4939490;29;20206;-76
2021/05/28 07:31:24;;;;;;;10.80;9.40;;;;;;;12.53;100.00;101631.50;4935424;29;20246;-75
2021/05/28 07:33:52;;;;;;;10.07;8.23;;;;;;;12.80;100.00;101636.66;4901179;29;20203;-77
2021/05/28 07:36:17;;;;;;;9.70;8.20;;;;;;;12.89;100.00;101629.63;4898515;29;20232;-75
2021/05/28 07:38:45;;;;;;;8.40;7.47;;;;;;;12.72;100.00;101639.81;4930626;29;20200;-76
2021/05/28 07:41:16;;;;;;;7.73;6.90;;;;;;;12.81;100.00;101646.44;4914126;29;20219;-76
2021/05/28 07:43:44;;;;;;;7.50;6.73;;;;;;;12.85;100.00;101650.28;4933620;29;20219;-76
2021/05/28 07:46:09;;;;;;;7.07;6.23;;;;;;;12.69;100.00;101650.41;4900620;29;20227;-76
2021/05/28 07:48:35;;;;;;;7.77;6.87;;;;;;;12.63;100.00;101653.38;4902595;29;20191;-76
2021/05/28 07:51:03;;;;;;;7.07;6.37;;;;;;;12.84;100.00;101647.84;4896684;29;20221;-77
2021/05/28 07:53:31;;;;;;;6.77;5.57;;;;;;;12.75;100.00;101650.19;4927648;29;20196;-76
2021/05/28 07:56:04;;;;;;;6.53;5.93;;;;;;;12.62;100.00;101649.00;4932305;29;20235;-77
2021/05/28 07:58:33;;;;;;;5.90;5.40;;;;;;;12.33;100.00;101653.13;4906492;29;20195;-75
2021/05/28 08:01:01;;;;;;;6.10;5.47;;;;;;;12.23;100.00;101663.91;4922359;29;20246;-78
2021/05/28 08:03:29;;;;;;;9.30;7.87;;;;;;;12.26;100.00;101665.31;4939362;29;20194;-76
2021/05/28 08:05:55;;;;;;;5.80;5.20;;;;;;;12.17;100.00;101662.25;4955944;28;20223;-77
2021/05/28 08:08:27;;;;;;;5.80;5.20;;;;;;;12.17;100.00;101673.13;4939838;29;20621;-76
2021/05/28 08:10:53;;;;;;;6.13;5.53;;;;;;;12.03;100.00;101677.38;4955788;28;20252;-74
2021/05/28 08:13:23;;;;;;;5.73;5.10;;;;;;;11.90;100.00;101665.22;4938804;29;20701;-76
2021/05/28 08:15:53;;;;;;;6.07;5.33;;;;;;;11.74;100.00;101677.00;4956038;28;20250;-76
2021/05/28 08:18:23;;;;;;;7.10;6.27;;;;;;;11.78;100.00;101683.63;4954743;29;20187;-76
2021/05/28 08:20:53;;;;;;;7.30;6.50;;;;;;;11.48;100.00;101685.94;4955790;28;20226;-78
2021/05/28 08:23:19;;;;;;;8.63;6.67;;;;;;;11.52;100.00;101690.66;4938859;29;20187;-75
2021/05/28 08:25:49;;;;;;;7.27;6.40;;;;;;;11.53;100.00;101680.56;4938779;29;20274;-76
2021/05/28 08:28:17;;;;;;;7.47;6.40;;;;;;;12.09;100.00;101675.50;4939892;28;20191;-75
2021/05/28 08:30:45;;;;;;;6.90;5.87;;;;;;;12.61;100.00;101669.16;4953904;29;20238;-75
2021/05/28 08:33:14;;;;;;;7.10;6.40;;;;;;;12.46;100.00;101667.13;4954582;29;20184;-75
2021/05/28 08:35:40;;;;;;;7.67;5.83;;;;;;;12.43;100.00;101672.28;4942830;29;20254;-76
2021/05/28 08:38:08;;;;;;;7.50;6.00;;;;;;;12.44;100.00;101680.22;4933163;29;20195;-75
2021/05/28 08:40:36;;;;;;;8.33;6.50;;;;;;;12.23;100.00;101688.44;4910675;29;20235;-77
2021/05/28 08:43:05;;;;;;;7.40;5.80;;;;;;;12.71;100.00;101676.34;4910947;29;20194;-79
2021/05/28 08:45:42;;;;;;;8.50;6.20;;;;;;;12.76;100.00;101679.13;4926416;29;20223;-78
2021/05/28 08:48:13;;;;;;;7.40;6.17;;;;;;;13.33;100.00;101680.03;4938126;29;20191;-75
2021/05/28 08:50:38;;;;;;;7.90;6.17;;;;;;;13.47;100.00;101688.31;4935994;29;20264;-76
2021/05/28 08:53:07;;;;;;;8.67;6.00;;;;;;;13.19;100.00;101684.34;4938709;29;20184;-76
2021/05/28 08:55:36;;;;;;;8.70;6.00;;;;;;;12.77;100.00;101680.75;4916646;29;20239;-76
2021/05/28 08:58:14;;;;;;;6.63;5.63;;;;;;;13.44;100.00;101679.00;4920060;29;20203;-76
2021/05/28 09:00:45;;;;;;;7.37;5.57;;;;;;;13.44;100.00;101668.09;4935354;29;20285;-76
2021/05/28 09:03:25;;;;;;;6.73;5.87;;;;;;;13.53;100.00;101676.34;4918824;29;20196;-76
2021/05/28 09:05:51;;;;;;;8.43;5.50;;;;;;;13.45;100.00;101681.47;4934982;29;20595;-75
2021/05/28 09:08:26;;;;;;;7.67;5.43;;;;;;;13.53;100.00;101692.72;4935523;29;20352;-76
2021/05/28 09:10:54;;;;;;;7.10;5.37;;;;;;;13.39;100.00;101681.69;4936431;29;20290;-77
2021/05/28 09:13:23;;;;;;;8.47;5.40;;;;;;;13.32;100.00;101686.59;4934552;29;20200;-76
2021/05/28 09:16:09;;;;;;;9.20;5.87;;;;;;;13.67;100.00;101677.47;4919391;29;20231;-76
2021/05/28 09:19:01;;;;;;;7.17;5.53;;;;;;;13.81;100.00;101664.13;4916585;29;20290;-76
2021/05/28 09:21:32;;;;;;;6.47;4.73;;;;;;;14.30;100.00;101667.84;4928586;29;20242;-75
2021/05/28 09:24:05;;;;;;;6.70;4.90;;;;;;;14.23;100.00;101667.28;4917213;29;20185;-75
2021/05/28 09:26:34;;;;;;;7.07;5.40;;;;;;;13.91;100.00;101667.72;4918658;29;20366;-76
2021/05/28 09:29:07;;;;;;;6.30;4.60;;;;;;;13.94;100.00;101668.00;4937449;29;20194;-76
2021/05/28 09:31:35;;;;;;;6.80;4.90;;;;;;;14.31;96.55;101661.25;4953137;28;20235;-75
2021/05/28 09:34:01;;;;;;;6.40;4.30;;;;;;;13.85;100.00;101658.69;4936886;28;20339;-75
2021/05/28 09:36:32;;;;;;;5.37;4.20;;;;;;;13.89;100.00;101659.78;4937514;29;20227;-75
2021/05/28 09:39:07;;;;;;;5.53;4.50;;;;;;;14.82;97.59;101671.94;4903892;29;20710;-75
2021/05/28 09:41:45;;;;;;;5.87;3.70;;;;;;;14.42;93.26;101671.13;4948963;29;20685;-76
2021/05/28 09:44:24;;;;;;;5.13;3.60;;;;;;;14.44;95.44;101685.31;4950488;29;20250;-76
2021/05/28 09:47:06;;;;;;;4.50;3.00;;;;;;;14.70;95.52;101684.25;4949955;29;20234;-75
2021/05/28 09:49:33;;;;;;;5.97;3.37;;;;;;;15.13;92.86;101674.38;4948505;29;20690;-74
2021/05/28 09:52:20;;;;;;;4.33;2.90;;;;;;;14.89;88.08;101682.56;4948353;29;20902;-76
2021/05/28 09:55:05;;;;;;;5.30;3.10;;;;;;;14.52;89.50;101675.75;4950112;28;20226;-76
2021/05/28 09:57:49;;;;;;;3.37;2.70;;;;;;;14.81;93.37;101675.75;4948762;29;20222;-77
2021/05/28 10:00:38;;;;;;;4.70;3.27;;;;;;;14.79;88.48;101693.53;4936055;28;20564;-76
2021/05/28 10:03:23;;;;;;;4.80;3.07;;;;;;;14.73;91.55;101678.22;4951534;29;20238;-76
2021/05/28 10:05:57;;;;;;;4.87;3.60;;;;;;;15.27;90.79;101675.41;4937788;29;20792;-75
2021/05/28 10:08:27;;;;;;;4.60;3.20;;;;;;;15.72;88.81;101669.78;4937107;28;20262;-73
2021/05/28 10:10:57;;;;;;;5.87;3.53;;;;;;;15.52;86.58;101667.13;4945254;29;20231;-75
2021/05/28 10:13:25;;;;;;;4.43;3.13;;;;;;;15.45;87.86;101666.59;4925235;29;20610;-74
2021/05/28 10:15:56;;;;;;;5.63;3.10;;;;;;;16.02;84.79;101660.28;4928946;29;20250;-75
2021/05/28 10:18:25;;;;;;;4.00;3.03;;;;;;;15.95;83.89;101679.00;4919000;29;20241;-75
2021/05/28 10:20:52;;;;;;;6.40;3.50;;;;;;;16.02;82.54;101659.47;4933718;28;20720;-75
2021/05/28 10:23:17;;;;;;;4.90;3.60;;;;;;;15.42;85.43;101672.66;4917217;29;20258;-75
2021/05/28 10:25:44;;;;;;;6.73;3.80;;;;;;;15.01;91.65;101676.53;4934967;29;20599;-73
2021/05/28 10:28:18;;;;;;;4.68;3.70;;;;;;;15.39;89.12;101670.47;4950705;29;20176;-74
2021/05/28 10:30:44;;;;;;;6.38;3.22;;;;;;;15.26;90.58;101673.78;4950184;29;20749;-73
2021/05/28 10:33:25;;;;;;;4.70;3.60;;;;;;;15.67;87.47;101664.31;4935189;29;20199;-75
2021/05/28 10:35:56;;;;;;;5.50;3.60;;;;;;;15.76;88.08;101674.41;4943711;28;20371;-74
2021/05/28 10:38:30;;;;;;;5.88;3.38;;;;;;;16.38;84.25;101672.72;4914920;29;20200;-75
2021/05/28 10:40:56;;;;;;;5.53;3.50;;;;;;;16.21;81.61;101675.03;4945573;28;20310;-76
2021/05/28 10:43:27;;;;;;;6.07;3.40;;;;;;;16.38;81.68;101668.03;4934110;29;20531;-76
2021/05/28 10:46:00;;;;;;;4.53;3.42;;;;;;;16.52;77.97;101665.44;4927678;29;20227;-75
2021/05/28 10:48:38;;;;;;;7.55;3.72;;;;;;;16.68;75.39;101665.88;4929533;29;20291;-76
2021/05/28 10:51:15;;;;;;;5.85;3.00;;;;;;;16.23;79.91;101665.41;4933313;29;20281;-76
2021/05/28 10:54:04;;;;;;;4.50;2.80;;;;;;;16.76;80.34;101664.44;4935951;29;20188;-75
2021/05/28 10:56:36;;;;;;;7.40;3.30;;;;;;;17.28;77.16;101666.13;4948806;28;20281;-76
2021/05/28 10:59:12;;;;;;;4.68;2.85;;;;;;;17.26;73.95;101660.09;4939454;29;20202;-75
2021/05/28 11:01:56;;;;;;;4.65;3.00;;;;;;;16.37;78.66;101660.94;4923572;29;20226;-77
2021/05/28 11:04:29;;;;;;;5.53;2.92;;;;;;;16.53;78.08;101667.09;4926421;28;20205;-76
2021/05/28 11:07:00;;;;;;;5.10;3.00;;;;;;;16.64;78.86;101673.03;4938546;29;20233;-77
2021/05/28 11:09:38;;;;;;;3.50;2.97;;;;;;;15.80;79.44;101667.28;4968888;28;20220;-75
2021/05/28 11:12:06;;;;;;;4.97;3.03;;;;;;;15.93;82.87;101662.00;4951396;28;20230;-76
2021/05/28 11:14:35;;;;;;;3.85;2.92;;;;;;;16.20;83.36;101659.66;4922035;29;20280;-76
2021/05/28 11:17:06;;;;;;;4.80;2.53;;;;;;;16.00;81.72;101665.25;4918468;29;20697;-77
2021/05/28 11:19:33;;;;;;;5.15;3.20;;;;;;;16.28;81.19;101667.28;4950593;29;20188;-75
2021/05/28 11:22:14;;;;;;;4.15;2.42;;;;;;;16.93;79.25;101651.91;4922673;29;20306;-75